METAR Analyzer

一覧表示

Hello, Guest. (Login)

RJCC/CTS  -  札幌/新千歳

観測日時
2021-05-15 17:00 (UTC) (26分前)
気温
14
露点
10
湿数
4
相対湿度
76.8%
QNH
1013.5hPa
推定現地気圧
1010.5hPa
推定海面気圧
1013.5hPa
体感温度
2.1
(無風時)
15.9
HI
13.5
気温前日比
+8
体感温度前日比
+3
HI前日比
+8.4
水平視程
>10000m
鉛直視程
データなし
雲底高度
Unknown
V/I
判定不可
RVR
No RVR data
卓越風
19kt from 150°
ガスト
No gust
降水
報告なし
その他の天気
報告なし
少しの(1/8) 層雲 @ 1000ft AGL / 散在する(4/8) 積雲 @ 2000ft AGL / 隙間のある雲 @ 不明な高さ

RJCC 151700Z 15019KT 9999 FEW010 SCT020 BKN/// 14/10 Q1013 RMK 1ST010 4CU020 A2993

RJTT/HND  -  東京/羽田

観測日時
2021-05-15 17:00 (UTC) (26分前)
気温
19
露点
14
湿数
5
相対湿度
72.7%
QNH
1016.9hPa
推定現地気圧
1016.2hPa
推定海面気圧
1016.9hPa
体感温度
10.1
(無風時)
19.8
HI
18.9
気温前日比
±0
体感温度前日比
-4.6
HI前日比
-0.5
水平視程
>10000m
鉛直視程
データなし
雲底高度
Unknown
V/I
判定不可
RVR
No RVR data
卓越風
13kt from 170°
ガスト
No gust
降水
報告なし
その他の天気
報告なし
少しの(1/8) 積雲 @ 3000ft AGL / 隙間のある雲 @ 不明な高さ

RJTT 151700Z 17013KT 9999 FEW030 BKN/// 19/14 Q1016 NOSIG RMK 1CU030 A3003

RJAA/NRT  -  東京/成田

観測日時
2021-05-15 17:00 (UTC) (26分前)
気温
16
露点
14
湿数
2
相対湿度
87.9%
QNH
1017.6hPa
推定現地気圧
1016.3hPa
推定海面気圧
1017.6hPa
体感温度
10.1
(無風時)
17.8
HI
16
気温前日比
-1
体感温度前日比
-2.1
HI前日比
-1.1
水平視程
>10000m
鉛直視程
データなし
雲底高度
No dense clouds
V/I
VMC (VFR)
RVR
No RVR data
卓越風
4kt from 160°
ガスト
No gust
降水
報告なし
その他の天気
報告なし
少しの(1/8) 積雲 @ 2000ft AGL

RJAA 151700Z 16004KT 9999 FEW020 16/14 Q1017 NOSIG RMK 1CU020 A3005

RJGG/NGO  -  名古屋/中部

観測日時
2021-05-15 17:00 (UTC) (26分前)
気温
20
露点
17
湿数
3
相対湿度
82.9%
QNH
1015.6hPa
推定現地気圧
1015.1hPa
推定海面気圧
1015.6hPa
体感温度
11.2
(無風時)
21
HI
20.2
気温前日比
±0
体感温度前日比
-1.5
HI前日比
-0.2
水平視程
>10000m
鉛直視程
データなし
雲底高度
12000ft AGL
V/I
VMC (VFR)
RVR
No RVR data
卓越風
15kt from 120°
ガスト
No gust
降水
弱い雨
その他の天気
報告なし
少しの(1/8) 積雲 @ 2000ft AGL / 散在する(3/8) 層積雲 @ 4500ft AGL / 隙間のある(5/8) 高積雲 @ 12000ft AGL

RJGG 151700Z 12015KT 9999 -RA FEW020 SCT045 BKN120 20/17 Q1015 NOSIG RMK 1CU020 3SC045 5AC120 A2999

RJOO/ITM  -  大阪/伊丹